Time;durP1;ratioP1;P1;durP2;ratioP2;P2;SDS_P1;SDS_P2;PMS_P1;PMS_P2;Temp;Humidity;BMP_temperature;BMP_pressure;BME280_temperature;BME280_humidity;BME280_pressure;Samples;Min_cycle;Max_cycle;Signal;HPM_P1;HPM_P2
2022/04/11 00:02:48;;;;;;;1.93;0.73;;;5.90;99.90;;;;;;6366624;22;20572;-91
2022/04/11 00:05:22;;;;;;;1.23;0.53;;;6.10;99.90;;;;;;6373415;22;20151;-90
2022/04/11 00:08:00;;;;;;;2.43;0.93;;;6.40;99.90;;;;;;6374158;22;20229;-90
2022/04/11 00:10:32;;;;;;;2.70;0.60;;;6.70;99.90;;;;;;6374326;22;20154;-89
2022/04/11 00:13:04;;;;;;;0.83;0.40;;;7.10;99.90;;;;;;6373398;22;20157;-90
2022/04/11 00:15:49;;;;;;;1.17;0.70;;;7.40;99.90;;;;;;6366822;22;20538;-90
2022/04/11 00:18:47;;;;;;;2.53;0.60;;;7.60;99.90;;;;;;6337345;22;20173;-92
2022/04/11 00:24:13;;;;;;;1.60;0.60;;;8.10;99.90;;;;;;6370584;22;20170;-91
2022/04/11 00:29:33;;;;;;;1.57;0.60;;;8.00;99.90;;;;;;6371269;22;20200;-90
2022/04/11 00:32:05;;;;;;;2.67;0.70;;;7.90;99.90;;;;;;6364665;22;20160;-90
2022/04/11 00:34:40;;;;;;;0.70;0.53;;;8.00;99.90;;;;;;6366218;22;20192;-89
2022/04/11 00:37:11;;;;;;;1.60;0.60;;;8.00;99.90;;;;;;6352191;22;20225;-93
2022/04/11 00:39:43;;;;;;;0.83;0.53;;;7.80;99.90;;;;;;6333098;22;20732;-91
2022/04/11 00:42:16;;;;;;;2.57;0.80;;;7.90;99.90;;;;;;6329650;22;20272;-91
2022/04/11 00:44:49;;;;;;;1.07;0.70;;;7.90;99.90;;;;;;6355597;22;20484;-91
2022/04/11 00:47:20;;;;;;;1.93;0.80;;;7.90;99.90;;;;;;6352194;22;20239;-90
2022/04/11 00:50:01;;;;;;;3.27;0.90;;;8.00;99.90;;;;;;6351317;22;20169;-89
2022/04/11 00:52:41;;;;;;;1.20;0.80;;;7.80;99.90;;;;;;6359659;22;20208;-90
2022/04/11 00:55:14;;;;;;;1.83;1.00;;;7.80;99.90;;;;;;6350142;22;20204;-89
2022/04/11 00:57:52;;;;;;;1.47;0.70;;;7.70;99.90;;;;;;6355891;22;20184;-90
2022/04/11 01:00:30;;;;;;;1.17;0.47;;;7.70;99.90;;;;;;6332680;22;20177;-91
2022/04/11 01:03:04;;;;;;;1.80;0.87;;;7.40;99.90;;;;;;6358766;22;20161;-90
2022/04/11 01:11:52;;;;;;;2.80;0.87;;;7.30;99.90;;;;;;6357912;22;20161;-91
2022/04/11 01:14:37;;;;;;;3.93;0.90;;;7.10;99.90;;;;;;6357171;22;20639;-91
2022/04/11 01:20:03;;;;;;;3.20;0.83;;;6.90;99.90;;;;;;6360800;22;20527;-88
2022/04/11 01:22:59;;;;;;;3.70;1.83;;;6.80;99.90;;;;;;6360082;22;20668;-91
2022/04/11 01:25:33;;;;;;;4.47;1.30;;;6.60;99.90;;;;;;6359814;22;20195;-91
2022/04/11 01:28:14;;;;;;;4.73;2.20;;;6.00;99.90;;;;;;6358927;22;20177;-92
2022/04/11 01:30:47;;;;;;;1.30;1.20;;;5.60;99.90;;;;;;6358982;22;20173;-91
2022/04/11 01:33:30;;;;;;;4.47;1.03;;;5.40;99.90;;;;;;6358945;22;20180;-91
2022/04/11 01:36:04;;;;;;;1.83;0.90;;;5.30;99.90;;;;;;6367300;22;20182;-91
2022/04/11 01:38:44;;;;;;;0.70;0.70;;;5.30;99.90;;;;;;6366340;22;20181;-92
2022/04/11 01:49:21;;;;;;;5.07;1.90;;;5.00;99.90;;;;;;6327487;22;20174;-92
2022/04/11 01:51:54;;;;;;;5.40;1.50;;;5.00;99.90;;;;;;6328907;22;20190;-91
2022/04/11 01:54:36;;;;;;;2.47;0.90;;;5.10;99.90;;;;;;6327709;22;20163;-92
2022/04/11 01:57:17;;;;;;;3.50;0.97;;;5.10;99.90;;;;;;6301631;22;20179;-90
2022/04/11 01:59:49;;;;;;;1.40;0.77;;;5.10;99.90;;;;;;6288114;22;20190;-92
2022/04/11 02:02:22;;;;;;;1.60;0.73;;;5.00;99.90;;;;;;6325394;22;20205;-92
2022/04/11 02:04:58;;;;;;;5.43;1.13;;;4.90;99.90;;;;;;6329305;22;20166;-93
2022/04/11 02:10:44;;;;;;;4.20;0.80;;;4.70;99.90;;;;;;6324128;22;20189;-93
2022/04/11 02:13:17;;;;;;;3.37;0.90;;;4.70;99.90;;;;;;6317941;22;20578;-92
2022/04/11 02:21:49;;;;;;;2.80;0.97;;;4.30;99.90;;;;;;6312581;22;20162;-92
2022/04/11 02:24:28;;;;;;;0.90;0.60;;;4.30;99.90;;;;;;6333906;22;20206;-92
2022/04/11 02:27:14;;;;;;;4.47;0.90;;;4.40;99.90;;;;;;6328829;22;20171;-92
2022/04/11 02:29:57;;;;;;;1.33;0.90;;;4.20;99.90;;;;;;6326419;22;20201;-92
2022/04/11 02:32:31;;;;;;;2.27;0.80;;;4.30;99.90;;;;;;6328474;22;20170;-92
2022/04/11 02:35:17;;;;;;;7.27;1.27;;;4.10;99.90;;;;;;6327012;22;20564;-92
2022/04/11 02:37:57;;;;;;;5.70;1.30;;;4.10;99.90;;;;;;6327442;22;20170;-93
2022/04/11 02:40:32;;;;;;;3.43;1.00;;;4.10;99.90;;;;;;6326740;22;20174;-92
2022/04/11 02:43:05;;;;;;;0.90;0.70;;;4.00;99.90;;;;;;6324992;22;20174;-92
2022/04/11 02:45:50;;;;;;;2.63;1.83;;;3.90;99.90;;;;;;6320454;22;20192;-92
2022/04/11 02:51:33;;;;;;;2.43;0.67;;;3.80;99.90;;;;;;6357706;22;20211;-94
2022/04/11 02:54:13;;;;;;;3.80;1.00;;;3.80;99.90;;;;;;6360802;22;20157;-93
2022/04/11 02:59:44;;;;;;;2.63;0.80;;;3.80;99.90;;;;;;6359385;22;20161;-91
2022/04/11 03:02:30;;;;;;;6.30;1.20;;;3.80;99.90;;;;;;6357067;22;20248;-92
2022/04/11 03:05:02;;;;;;;5.73;1.00;;;3.80;99.90;;;;;;6357364;22;20197;-91
2022/04/11 03:07:34;;;;;;;2.13;0.90;;;3.80;99.90;;;;;;6356507;22;20201;-92
2022/04/11 03:10:06;;;;;;;5.50;1.33;;;3.80;99.90;;;;;;6357546;22;20178;-90
2022/04/11 03:12:39;;;;;;;0.77;0.67;;;3.80;99.90;;;;;;6331046;22;20177;-93
2022/04/11 03:15:28;;;;;;;1.87;0.90;;;3.70;99.90;;;;;;6359354;22;20199;-91
2022/04/11 03:18:03;;;;;;;3.07;1.23;;;3.60;99.90;;;;;;6356752;22;20539;-93
2022/04/11 03:23:33;;;;;;;3.47;0.90;;;3.60;99.90;;;;;;6336554;22;20169;-91
2022/04/11 03:26:07;;;;;;;2.13;0.80;;;3.60;99.90;;;;;;6340001;22;20166;-92
2022/04/11 03:28:50;;;;;;;1.87;0.80;;;3.50;99.90;;;;;;6365324;22;20168;-92
2022/04/11 03:31:28;;;;;;;3.57;0.93;;;3.50;99.90;;;;;;6361087;22;20173;-93
2022/04/11 03:34:01;;;;;;;4.30;1.00;;;3.50;99.90;;;;;;6359015;22;20169;-92
2022/04/11 03:36:47;;;;;;;6.07;1.10;;;3.50;99.90;;;;;;6364440;22;20250;-93
2022/04/11 03:39:28;;;;;;;6.40;0.80;;;3.40;99.90;;;;;;6365755;22;20177;-93
2022/04/11 03:45:00;;;;;;;1.47;0.90;;;3.40;99.90;;;;;;6361683;22;20197;-91
2022/04/11 03:47:38;;;;;;;3.93;1.00;;;3.40;99.90;;;;;;6362738;22;20196;-92
2022/04/11 03:50:11;;;;;;;2.87;0.70;;;3.50;99.90;;;;;;6360119;22;20180;-91
2022/04/11 03:52:56;;;;;;;3.63;0.80;;;3.50;99.90;;;;;;6356226;22;20177;-91
2022/04/11 03:55:30;;;;;;;2.23;0.97;;;3.50;99.90;;;;;;6330466;22;20193;-91
2022/04/11 03:58:04;;;;;;;1.63;0.77;;;3.50;99.90;;;;;;6349913;22;20173;-91
2022/04/11 04:00:36;;;;;;;3.53;0.90;;;3.60;99.90;;;;;;6327050;22;20200;-91
2022/04/11 04:03:49;;;;;;;2.63;1.10;;;3.60;99.90;;;;;;6351624;22;20174;-90
2022/04/11 04:06:48;;;;;;;1.87;0.67;;;3.70;99.90;;;;;;6348258;22;20636;-90
2022/04/11 04:09:20;;;;;;;3.50;0.70;;;3.70;99.90;;;;;;6357089;22;20177;-90
2022/04/11 04:14:40;;;;;;;2.40;1.07;;;3.50;99.90;;;;;;6344644;22;20174;-92
2022/04/11 04:17:13;;;;;;;2.87;1.00;;;3.30;99.90;;;;;;6353209;22;20217;-92
2022/04/11 04:19:48;;;;;;;1.87;0.60;;;3.20;99.90;;;;;;6345017;22;20173;-92
2022/04/11 04:22:23;;;;;;;5.30;0.97;;;3.30;99.90;;;;;;6321287;22;20279;-91
2022/04/11 04:24:55;;;;;;;1.90;0.57;;;3.30;99.90;;;;;;6350381;22;20515;-91
2022/04/11 04:27:28;;;;;;;1.63;0.87;;;3.30;99.90;;;;;;6346405;22;20189;-90
2022/04/11 04:30:00;;;;;;;2.73;0.80;;;3.40;99.90;;;;;;6344936;22;20174;-90
2022/04/11 04:32:32;;;;;;;2.03;0.90;;;3.30;99.90;;;;;;6349799;22;20201;-91
2022/04/11 04:35:12;;;;;;;3.37;1.10;;;3.30;99.90;;;;;;6356469;22;20211;-91
2022/04/11 04:38:01;;;;;;;5.53;1.50;;;3.30;99.90;;;;;;6343395;22;20213;-90
2022/04/11 04:40:37;;;;;;;2.63;1.20;;;3.30;99.90;;;;;;6356461;22;20173;-91
2022/04/11 04:43:14;;;;;;;1.70;0.90;;;3.30;99.90;;;;;;6356748;22;20166;-91
2022/04/11 04:46:02;;;;;;;2.70;0.97;;;3.30;99.90;;;;;;6356250;22;20182;-91
2022/04/11 04:48:46;;;;;;;3.07;1.00;;;3.30;99.90;;;;;;6360070;22;20203;-90
2022/04/11 04:54:18;;;;;;;2.03;1.20;;;3.30;99.90;;;;;;6350697;22;20174;-90
2022/04/11 04:56:52;;;;;;;2.30;1.03;;;3.20;99.90;;;;;;6365084;22;20223;-89
2022/04/11 04:59:23;;;;;;;4.30;1.33;;;3.20;99.90;;;;;;6353660;22;20204;-91
2022/04/11 05:01:55;;;;;;;1.93;1.10;;;3.20;99.90;;;;;;6346908;22;20204;-91
2022/04/11 05:04:28;;;;;;;2.90;0.73;;;3.20;99.90;;;;;;6347638;22;20181;-91
2022/04/11 05:07:00;;;;;;;4.93;0.90;;;3.20;99.90;;;;;;6350502;22;20173;-92
2022/04/11 05:09:34;;;;;;;2.30;0.90;;;3.20;99.90;;;;;;6365922;22;20166;-90
2022/04/11 05:12:07;;;;;;;0.90;0.63;;;3.20;99.90;;;;;;6339544;22;20165;-90
2022/04/11 05:14:38;;;;;;;2.77;1.10;;;3.20;99.90;;;;;;6363984;22;20170;-92
2022/04/11 05:17:10;;;;;;;1.27;0.77;;;3.20;99.90;;;;;;6361282;22;20197;-91
2022/04/11 05:19:41;;;;;;;3.33;0.80;;;3.20;99.90;;;;;;6353000;22;20174;-91
2022/04/11 05:22:13;;;;;;;4.00;1.00;;;3.20;99.90;;;;;;6349572;22;20174;-91
2022/04/11 05:24:46;;;;;;;2.57;0.93;;;3.10;99.90;;;;;;6348915;22;20193;-91
2022/04/11 05:27:18;;;;;;;2.97;1.00;;;3.10;99.90;;;;;;6349171;22;20508;-90
2022/04/11 05:29:51;;;;;;;3.77;0.93;;;3.10;99.90;;;;;;6351078;22;20173;-90
2022/04/11 05:32:22;;;;;;;2.27;0.87;;;3.10;99.90;;;;;;6349254;22;20162;-91
2022/04/11 05:34:54;;;;;;;1.80;0.80;;;3.10;99.90;;;;;;6347720;22;20669;-91
2022/04/11 05:37:27;;;;;;;2.37;1.00;;;3.00;99.90;;;;;;6363115;22;20200;-91
2022/04/11 05:40:00;;;;;;;3.47;0.93;;;3.00;99.90;;;;;;6314825;22;20162;-91
2022/04/11 05:42:34;;;;;;;2.13;0.93;;;3.00;99.90;;;;;;6358735;22;20224;-91
2022/04/11 05:45:08;;;;;;;2.23;0.90;;;2.90;99.90;;;;;;6352371;22;20182;-91
2022/04/11 05:47:40;;;;;;;4.30;1.40;;;2.90;99.90;;;;;;6300154;22;20235;-92
2022/04/11 05:50:12;;;;;;;2.97;0.97;;;2.90;99.90;;;;;;6346316;22;20738;-91
2022/04/11 05:52:44;;;;;;;2.63;1.10;;;2.90;99.90;;;;;;6348183;22;20234;-91
2022/04/11 05:55:19;;;;;;;3.37;0.87;;;2.90;99.90;;;;;;6344885;22;20180;-91
2022/04/11 05:57:51;;;;;;;1.60;1.17;;;2.80;99.90;;;;;;6343735;22;20220;-92
2022/04/11 06:00:22;;;;;;;4.03;1.40;;;2.80;99.90;;;;;;6344567;22;20230;-91
2022/04/11 06:02:53;;;;;;;2.87;1.13;;;2.80;99.90;;;;;;6344356;22;20212;-91
2022/04/11 06:05:26;;;;;;;1.90;1.10;;;2.80;99.90;;;;;;6344504;22;20177;-90
2022/04/11 06:07:58;;;;;;;5.47;1.60;;;2.90;99.90;;;;;;6343865;22;20198;-91
2022/04/11 06:10:33;;;;;;;3.90;1.47;;;2.90;99.90;;;;;;6344772;22;20165;-91
2022/04/11 06:13:05;;;;;;;2.37;1.03;;;2.80;99.90;;;;;;6345166;22;20193;-90
2022/04/11 06:18:37;;;;;;;3.43;0.90;;;2.80;99.90;;;;;;6356314;22;20247;-89
2022/04/11 06:21:18;;;;;;;3.40;1.40;;;2.90;99.90;;;;;;6353877;22;20186;-90
2022/04/11 06:23:52;;;;;;;3.37;1.30;;;2.80;99.90;;;;;;6357349;22;20177;-89
2022/04/11 06:26:26;;;;;;;3.47;1.13;;;2.90;99.90;;;;;;6355446;22;20174;-91
2022/04/11 06:29:06;;;;;;;2.33;1.10;;;2.90;99.90;;;;;;6348785;22;20182;-91
2022/04/11 06:31:38;;;;;;;2.10;1.10;;;2.90;99.90;;;;;;6357103;22;20177;-90
2022/04/11 06:34:18;;;;;;;3.13;1.40;;;2.90;99.90;;;;;;6355052;22;20178;-91
2022/04/11 06:37:00;;;;;;;3.73;1.57;;;2.90;99.90;;;;;;6358385;22;20218;-91
2022/04/11 06:39:44;;;;;;;2.17;1.10;;;3.10;99.90;;;;;;6358606;22;20181;-91
2022/04/11 06:42:19;;;;;;;4.63;1.30;;;3.00;99.90;;;;;;6358075;22;20174;-92
2022/04/11 06:44:56;;;;;;;2.57;0.83;;;3.10;99.90;;;;;;6358187;22;20180;-91
2022/04/11 06:47:27;;;;;;;2.47;1.00;;;3.10;99.90;;;;;;6357607;22;20185;-91
2022/04/11 06:52:45;;;;;;;1.53;1.00;;;3.10;99.90;;;;;;6364666;22;20184;-91
2022/04/11 06:58:12;;;;;;;1.00;0.90;;;3.20;99.90;;;;;;6357850;22;20967;-91
2022/04/11 07:00:51;;;;;;;2.27;1.03;;;3.20;99.90;;;;;;6359876;22;20192;-90
2022/04/11 07:03:35;;;;;;;2.67;0.70;;;3.10;99.90;;;;;;6361216;22;20256;-91
2022/04/11 07:06:07;;;;;;;2.97;1.03;;;3.10;99.90;;;;;;6358414;22;20162;-91
2022/04/11 07:08:40;;;;;;;3.43;0.93;;;3.10;99.90;;;;;;6317827;22;20232;-90
2022/04/11 07:11:13;;;;;;;1.87;0.97;;;3.00;99.90;;;;;;6327080;22;20174;-91
2022/04/11 07:14:23;;;;;;;1.80;0.80;;;3.00;99.90;;;;;;6325913;22;20174;-90
2022/04/11 07:16:57;;;;;;;1.10;0.80;;;3.00;99.90;;;;;;6299394;22;20251;-91
2022/04/11 07:19:43;;;;;;;3.13;0.90;;;3.00;99.90;;;;;;6326947;22;20178;-90
2022/04/11 07:22:23;;;;;;;4.80;1.10;;;3.00;99.90;;;;;;6315311;22;20181;-90
2022/04/11 07:24:56;;;;;;;1.27;0.70;;;3.00;99.90;;;;;;6326566;22;20162;-91
2022/04/11 07:27:28;;;;;;;2.60;1.00;;;3.10;99.90;;;;;;6323504;22;20186;-91
2022/04/11 07:30:04;;;;;;;2.60;0.97;;;3.00;99.90;;;;;;6322988;22;20189;-93
2022/04/11 07:35:50;;;;;;;3.77;1.10;;;3.00;99.90;;;;;;6327985;22;20174;-91
2022/04/11 07:38:22;;;;;;;2.93;1.03;;;3.10;99.90;;;;;;6334039;22;20237;-89
2022/04/11 07:40:54;;;;;;;3.43;0.90;;;3.10;99.90;;;;;;6334751;22;20165;-91
2022/04/11 07:43:47;;;;;;;2.57;0.80;;;3.00;99.90;;;;;;6304152;22;20243;-91
2022/04/11 07:46:32;;;;;;;1.53;0.90;;;3.00;99.90;;;;;;6302640;22;20227;-91
2022/04/11 07:49:07;;;;;;;7.00;1.10;;;3.00;99.90;;;;;;6325756;22;20205;-90
2022/04/11 07:51:40;;;;;;;3.10;0.90;;;3.00;99.90;;;;;;6300772;22;20166;-92
2022/04/11 07:54:22;;;;;;;3.40;1.00;;;3.00;99.90;;;;;;6324543;22;20179;-91
2022/04/11 07:56:54;;;;;;;1.60;0.70;;;2.90;99.90;;;;;;6325168;22;20174;-91
2022/04/11 07:59:29;;;;;;;3.23;1.03;;;2.90;99.90;;;;;;6271638;22;20198;-90
2022/04/11 08:02:03;;;;;;;1.97;1.03;;;2.90;99.90;;;;;;6299869;22;20178;-90
2022/04/11 08:04:35;;;;;;;1.17;1.00;;;2.80;99.90;;;;;;6324824;22;20245;-90
2022/04/11 08:10:06;;;;;;;2.10;1.00;;;2.90;99.90;;;;;;6354160;22;20178;-91
2022/04/11 08:12:39;;;;;;;3.30;1.20;;;2.90;99.90;;;;;;6352751;22;20523;-90
2022/04/11 08:15:26;;;;;;;2.93;0.90;;;2.90;99.90;;;;;;6334359;22;20205;-91
2022/04/11 08:23:44;;;;;;;2.60;0.87;;;3.00;99.90;;;;;;6354972;22;20665;-91
2022/04/11 08:26:23;;;;;;;3.47;1.00;;;3.00;99.90;;;;;;6366392;22;20181;-90
2022/04/11 08:28:56;;;;;;;2.60;0.80;;;3.00;99.90;;;;;;6363094;22;20200;-91
2022/04/11 08:31:36;;;;;;;1.10;0.90;;;3.00;99.90;;;;;;6364474;22;20181;-89
2022/04/11 08:34:12;;;;;;;2.90;0.80;;;3.00;99.90;;;;;;6336726;22;20180;-91
2022/04/11 08:36:49;;;;;;;1.17;0.70;;;3.00;99.90;;;;;;6360067;22;20174;-91
2022/04/11 08:39:21;;;;;;;1.63;1.00;;;3.00;99.90;;;;;;6333659;22;20254;-89
2022/04/11 08:42:00;;;;;;;2.93;1.20;;;3.00;99.90;;;;;;6365519;22;20283;-90
2022/04/11 08:50:18;;;;;;;2.97;1.20;;;3.10;99.90;;;;;;6360989;22;20243;-90
2022/04/11 08:52:52;;;;;;;1.37;1.07;;;3.10;99.90;;;;;;6360575;22;20186;-91
2022/04/11 08:55:24;;;;;;;2.90;1.20;;;3.00;99.90;;;;;;6362160;22;20153;-91
2022/04/11 08:58:01;;;;;;;1.27;1.00;;;3.00;99.90;;;;;;6358561;22;20170;-91
2022/04/11 09:00:39;;;;;;;3.53;1.00;;;3.00;99.90;;;;;;6357596;22;20177;-91
2022/04/11 09:06:14;;;;;;;1.90;1.00;;;3.00;99.90;;;;;;6352001;22;20174;-90
2022/04/11 09:08:52;;;;;;;2.03;1.47;;;3.00;99.90;;;;;;6345285;22;20177;-92
2022/04/11 09:11:34;;;;;;;2.80;1.20;;;3.00;99.90;;;;;;6346304;22;20181;-90
2022/04/11 09:14:08;;;;;;;2.73;1.37;;;3.00;99.90;;;;;;6346489;22;20230;-91
2022/04/11 09:16:51;;;;;;;2.93;1.20;;;3.00;99.90;;;;;;6345823;22;20173;-91
2022/04/11 09:19:25;;;;;;;1.33;1.00;;;3.00;99.90;;;;;;6347040;22;20193;-90
2022/04/11 09:22:32;;;;;;;1.83;1.30;;;3.00;99.90;;;;;;6348980;22;20327;-90
2022/04/11 09:25:10;;;;;;;1.63;1.30;;;3.00;99.90;;;;;;6347067;22;20196;-92
2022/04/11 09:27:44;;;;;;;5.93;1.30;;;2.90;99.90;;;;;;6344942;22;20380;-91
2022/04/11 09:30:31;;;;;;;2.10;1.50;;;2.90;99.90;;;;;;6345868;22;20172;-91
2022/04/11 09:33:04;;;;;;;4.63;1.60;;;2.80;99.90;;;;;;6349572;22;20181;-90
2022/04/11 09:35:37;;;;;;;2.50;1.23;;;2.80;99.90;;;;;;6346123;22;20173;-91
2022/04/11 09:38:20;;;;;;;2.10;1.20;;;2.80;99.90;;;;;;6363367;22;20161;-90
2022/04/11 09:40:54;;;;;;;3.70;1.50;;;2.80;99.90;;;;;;6366190;22;20177;-92
2022/04/11 09:43:27;;;;;;;3.47;1.70;;;2.80;99.90;;;;;;6321341;22;20281;-92
2022/04/11 09:46:03;;;;;;;2.10;1.70;;;2.80;99.90;;;;;;6345573;22;20173;-92
2022/04/11 09:48:40;;;;;;;4.67;1.60;;;2.80;99.90;;;;;;6347671;22;20233;-92
2022/04/11 09:51:13;;;;;;;1.83;1.60;;;2.90;99.90;;;;;;6348382;22;20200;-91
2022/04/11 09:53:48;;;;;;;3.43;1.90;;;2.80;99.90;;;;;;6346051;22;20196;-91
2022/04/11 09:56:22;;;;;;;3.63;1.50;;;2.80;99.90;;;;;;6344135;22;20173;-91
2022/04/11 09:58:54;;;;;;;5.13;1.73;;;2.80;99.90;;;;;;6343484;22;20246;-92
2022/04/11 10:01:26;;;;;;;4.17;1.80;;;2.80;99.90;;;;;;6344684;22;20203;-91
2022/04/11 10:03:58;;;;;;;3.23;1.80;;;2.70;99.90;;;;;;6342373;22;20284;-91
2022/04/11 10:06:29;;;;;;;4.17;1.57;;;2.80;99.90;;;;;;6344125;22;20218;-91
2022/04/11 10:09:04;;;;;;;3.00;1.60;;;2.80;99.90;;;;;;6316339;22;20243;-90
2022/04/11 10:11:37;;;;;;;4.53;1.50;;;2.80;99.90;;;;;;6344923;22;20179;-89
2022/04/11 10:14:11;;;;;;;4.20;1.87;;;2.80;99.90;;;;;;6344788;22;20178;-91
2022/04/11 10:16:44;;;;;;;3.00;1.30;;;2.80;99.90;;;;;;6346181;22;20195;-91
2022/04/11 10:19:16;;;;;;;4.47;1.17;;;2.80;99.90;;;;;;6363798;22;20197;-91
2022/04/11 10:21:49;;;;;;;2.07;1.20;;;2.80;99.90;;;;;;6363999;22;20210;-91
2022/04/11 10:24:36;;;;;;;3.03;1.50;;;2.80;99.90;;;;;;6362686;22;20173;-92
2022/04/11 10:27:22;;;;;;;3.30;1.40;;;2.90;99.90;;;;;;6357876;22;20162;-92
2022/04/11 10:29:55;;;;;;;2.17;1.30;;;2.90;99.90;;;;;;6346543;22;20173;-91
2022/04/11 10:32:29;;;;;;;2.33;1.13;;;2.90;99.90;;;;;;6347352;22;20169;-91
2022/04/11 10:35:02;;;;;;;4.23;1.50;;;2.80;99.90;;;;;;6345219;22;20237;-90
2022/04/11 10:38:09;;;;;;;2.50;1.10;;;2.90;99.90;;;;;;6344522;22;20170;-91
2022/04/11 10:40:49;;;;;;;2.70;1.80;;;2.90;99.90;;;;;;6338721;22;20204;-91
2022/04/11 10:43:41;;;;;;;2.33;1.17;;;2.90;99.90;;;;;;6347574;22;20197;-92
2022/04/11 10:46:13;;;;;;;3.20;1.17;;;2.90;99.90;;;;;;6343965;22;20181;-91
2022/04/11 10:49:05;;;;;;;2.30;1.33;;;3.00;99.90;;;;;;6317217;22;20180;-91
2022/04/11 10:51:38;;;;;;;1.40;1.10;;;2.90;99.90;;;;;;6316644;22;20162;-91
2022/04/11 10:54:22;;;;;;;2.90;1.20;;;2.90;99.90;;;;;;6344146;22;20173;-90
2022/04/11 10:57:34;;;;;;;1.20;1.10;;;3.00;99.90;;;;;;6321379;22;20177;-91
2022/04/11 11:00:11;;;;;;;2.60;1.20;;;3.00;99.90;;;;;;6344154;22;20198;-92
2022/04/11 11:03:09;;;;;;;2.67;1.40;;;3.00;99.90;;;;;;6318915;22;20165;-91
2022/04/11 11:05:43;;;;;;;2.37;1.13;;;3.00;99.90;;;;;;6344579;22;20190;-91
2022/04/11 11:08:33;;;;;;;2.40;1.43;;;3.10;99.90;;;;;;6343574;22;20561;-91
2022/04/11 11:11:24;;;;;;;4.23;1.63;;;3.10;99.90;;;;;;6345140;22;20178;-91
2022/04/11 11:14:00;;;;;;;2.53;1.30;;;3.10;99.90;;;;;;6344997;22;20183;-91
2022/04/11 11:16:58;;;;;;;3.27;1.30;;;3.20;99.90;;;;;;6344732;22;20185;-92
2022/04/11 11:19:30;;;;;;;2.30;1.40;;;3.20;99.90;;;;;;6344470;22;20200;-91
2022/04/11 11:22:08;;;;;;;2.03;1.30;;;3.20;99.90;;;;;;6344663;22;20231;-91
2022/04/11 11:25:00;;;;;;;1.37;1.23;;;3.20;99.90;;;;;;6346990;22;20173;-89
2022/04/11 11:27:32;;;;;;;1.00;0.90;;;3.20;99.90;;;;;;6353430;22;20191;-91
2022/04/11 11:30:11;;;;;;;1.70;0.90;;;3.20;99.90;;;;;;6355759;22;20177;-91
2022/04/11 11:32:43;;;;;;;1.10;0.90;;;3.30;99.90;;;;;;6332380;22;20173;-91
2022/04/11 11:35:15;;;;;;;1.83;1.20;;;3.30;99.90;;;;;;6363181;22;20166;-90
2022/04/11 11:37:48;;;;;;;1.03;0.93;;;3.30;99.90;;;;;;6365002;22;20364;-91
2022/04/11 11:40:21;;;;;;;3.00;1.10;;;3.40;99.90;;;;;;6365608;22;20197;-91
2022/04/11 11:42:52;;;;;;;1.03;0.93;;;3.30;99.90;;;;;;6357876;22;20170;-90
2022/04/11 11:45:31;;;;;;;1.17;0.90;;;3.30;99.90;;;;;;6334091;22;20164;-90
2022/04/11 11:48:22;;;;;;;1.30;1.00;;;3.40;99.90;;;;;;6364716;22;20237;-90
2022/04/11 11:50:55;;;;;;;0.80;0.80;;;3.40;99.90;;;;;;6365435;22;20165;-91
2022/04/11 11:53:41;;;;;;;0.83;0.83;;;3.30;99.90;;;;;;6361435;22;20173;-91
2022/04/11 11:56:13;;;;;;;1.00;0.80;;;3.40;99.90;;;;;;6361952;22;20168;-91
2022/04/11 11:58:47;;;;;;;1.30;0.97;;;3.30;99.90;;;;;;6357719;22;20162;-90
2022/04/11 12:01:35;;;;;;;1.93;0.80;;;3.40;99.90;;;;;;6357997;22;20189;-90
2022/04/11 12:04:20;;;;;;;1.70;0.93;;;3.50;99.90;;;;;;6359195;22;20173;-91
2022/04/11 12:06:56;;;;;;;2.30;1.10;;;3.50;99.90;;;;;;6336018;22;20169;-92
2022/04/11 12:09:37;;;;;;;4.30;1.20;;;3.50;99.90;;;;;;6358746;22;20181;-91
2022/04/11 12:12:09;;;;;;;1.33;0.90;;;3.50;99.90;;;;;;6358093;22;20184;-92
2022/04/11 12:15:08;;;;;;;1.77;1.10;;;3.50;99.90;;;;;;6332915;22;20174;-90
2022/04/11 12:17:44;;;;;;;1.00;0.90;;;3.50;99.90;;;;;;6272251;22;20223;-91
2022/04/11 12:20:19;;;;;;;1.30;1.20;;;3.50;99.90;;;;;;6354887;22;20201;-91
2022/04/11 12:23:07;;;;;;;2.30;1.40;;;3.60;99.90;;;;;;6348512;22;20187;-91
2022/04/11 12:25:39;;;;;;;1.70;1.60;;;3.60;99.90;;;;;;6346903;22;20620;-91
2022/04/11 12:28:19;;;;;;;2.97;1.80;;;3.60;99.90;;;;;;6346392;22;20186;-91
2022/04/11 12:31:07;;;;;;;1.70;1.60;;;3.60;99.90;;;;;;6322141;22;20174;-92
2022/04/11 12:33:42;;;;;;;2.20;2.00;;;3.50;99.90;;;;;;6348658;22;20239;-91
2022/04/11 12:36:16;;;;;;;6.80;6.30;;;3.60;99.90;;;;;;6350409;22;20173;-91
2022/04/11 12:38:52;;;;;;;2.20;2.00;;;3.60;99.90;;;;;;6347516;22;20189;-92
2022/04/11 12:41:31;;;;;;;4.23;1.90;;;3.60;99.90;;;;;;6349871;22;20201;-91
2022/04/11 12:44:18;;;;;;;2.90;2.43;;;3.60;99.90;;;;;;6322500;22;20181;-91
2022/04/11 12:46:51;;;;;;;2.40;2.20;;;3.50;99.90;;;;;;6323723;22;20684;-90
2022/04/11 12:49:26;;;;;;;2.47;2.17;;;3.50;99.90;;;;;;6348837;22;20174;-90
2022/04/11 12:52:03;;;;;;;2.47;2.27;;;3.50;99.90;;;;;;6349039;22;20177;-90
2022/04/11 12:54:40;;;;;;;2.67;2.47;;;3.50;99.90;;;;;;6327540;22;20173;-89
2022/04/11 12:57:13;;;;;;;2.50;2.20;;;3.60;99.90;;;;;;6356514;22;20170;-89
2022/04/11 12:59:49;;;;;;;2.30;2.10;;;3.50;99.90;;;;;;6351500;22;20195;-91
2022/04/11 13:02:21;;;;;;;2.97;2.30;;;3.50;99.90;;;;;;6346920;22;20170;-90
2022/04/11 13:04:57;;;;;;;3.23;2.03;;;3.50;99.90;;;;;;6347285;22;20235;-91
2022/04/11 13:07:54;;;;;;;2.40;2.03;;;3.50;99.90;;;;;;6346603;22;20581;-91
2022/04/11 13:10:27;;;;;;;2.40;2.20;;;3.50;99.90;;;;;;6349343;22;20200;-90
2022/04/11 13:12:58;;;;;;;3.37;2.23;;;3.50;99.90;;;;;;6345782;22;20184;-91
2022/04/11 13:18:23;;;;;;;2.40;2.17;;;3.50;99.90;;;;;;6345998;22;20189;-90
2022/04/11 13:18:26;;;;;;;2.60;2.40;;;3.50;99.90;;;;;;6345684;22;20257;-91
2022/04/11 13:20:59;;;;;;;2.33;2.10;;;3.50;99.90;;;;;;6346006;22;20205;-90
2022/04/11 13:23:33;;;;;;;4.17;2.20;;;3.50;99.90;;;;;;6320224;22;20181;-90
2022/04/11 13:26:04;;;;;;;2.37;2.17;;;3.50;99.90;;;;;;6347308;22;20496;-91
2022/04/11 13:28:36;;;;;;;3.33;2.40;;;3.60;99.90;;;;;;6346184;22;20186;-90
2022/04/11 13:31:08;;;;;;;2.83;2.20;;;3.60;99.90;;;;;;6351558;22;20177;-90
2022/04/11 13:33:40;;;;;;;4.20;2.23;;;3.60;99.90;;;;;;6333192;22;20170;-91
2022/04/11 13:36:14;;;;;;;3.70;2.70;;;3.50;99.90;;;;;;6365715;22;20664;-92
2022/04/11 13:38:47;;;;;;;2.83;2.50;;;3.60;99.90;;;;;;6365256;22;20176;-91
2022/04/11 13:41:19;;;;;;;2.53;2.33;;;3.60;99.90;;;;;;6354735;22;20228;-91
2022/04/11 13:43:51;;;;;;;2.53;2.33;;;3.60;99.90;;;;;;6324563;22;20173;-91
2022/04/11 13:46:26;;;;;;;2.90;2.47;;;3.60;99.90;;;;;;6348430;22;20173;-92
2022/04/11 13:48:58;;;;;;;5.53;2.60;;;3.60;99.90;;;;;;6345379;22;20226;-90
2022/04/11 13:51:32;;;;;;;2.73;2.53;;;3.70;99.90;;;;;;6346329;22;20173;-90
2022/04/11 13:54:23;;;;;;;2.90;2.60;;;3.60;99.90;;;;;;6323666;22;20197;-91
2022/04/11 13:56:54;;;;;;;2.47;2.27;;;3.70;99.90;;;;;;6346315;22;20184;-91
2022/04/11 13:59:26;;;;;;;2.70;2.50;;;3.60;99.90;;;;;;6318749;22;20608;-90
2022/04/11 14:01:58;;;;;;;4.00;2.67;;;3.60;99.90;;;;;;6346286;22;20221;-90
2022/04/11 14:04:32;;;;;;;3.10;2.80;;;3.60;99.90;;;;;;6346114;22;20168;-91
2022/04/11 14:07:06;;;;;;;3.10;2.80;;;3.60;99.90;;;;;;6345365;22;20177;-90
2022/04/11 14:09:39;;;;;;;3.17;2.90;;;3.70;99.90;;;;;;6345869;22;20182;-90
2022/04/11 14:12:12;;;;;;;3.63;2.80;;;3.80;99.90;;;;;;6327009;22;20178;-91
2022/04/11 14:14:43;;;;;;;3.30;3.00;;;3.70;99.90;;;;;;6365298;22;20197;-91
2022/04/11 14:17:16;;;;;;;4.10;2.50;;;3.80;99.90;;;;;;6337853;22;20180;-91
2022/04/11 14:19:47;;;;;;;3.00;2.70;;;3.80;99.90;;;;;;6360094;22;20221;-90
2022/04/11 14:22:22;;;;;;;4.37;2.53;;;3.90;99.90;;;;;;6353940;22;20247;-91
2022/04/11 14:24:54;;;;;;;2.57;2.37;;;4.00;99.90;;;;;;6353239;22;20177;-91
2022/04/11 14:27:25;;;;;;;5.63;2.67;;;4.00;99.90;;;;;;6348393;22;20170;-92
2022/04/11 14:30:16;;;;;;;2.50;2.30;;;4.00;99.90;;;;;;6348883;22;20173;-91
2022/04/11 14:32:48;;;;;;;2.67;2.37;;;4.00;99.90;;;;;;6347953;22;20166;-91
2022/04/11 14:35:20;;;;;;;2.77;2.23;;;4.00;99.90;;;;;;6345212;22;20207;-91
2022/04/11 14:37:56;;;;;;;3.07;2.07;;;3.90;99.90;;;;;;6346257;22;20182;-90
2022/04/11 14:40:28;;;;;;;3.70;2.23;;;3.90;99.90;;;;;;6347639;22;20189;-91
2022/04/11 14:43:13;;;;;;;3.57;2.40;;;4.00;99.90;;;;;;6352753;22;20166;-90
2022/04/11 14:45:45;;;;;;;3.93;2.23;;;4.00;99.90;;;;;;6347182;22;20181;-89
2022/04/11 14:48:17;;;;;;;2.17;1.97;;;4.00;99.90;;;;;;6343594;22;20231;-91
2022/04/11 14:50:50;;;;;;;3.17;1.97;;;4.00;99.90;;;;;;6324738;22;20228;-91
2022/04/11 14:56:38;;;;;;;1.50;1.33;;;4.00;99.90;;;;;;6359803;22;20173;-91
2022/04/11 15:02:16;;;;;;;3.90;1.40;;;4.10;99.90;;;;;;6349060;22;20188;-92
2022/04/11 15:04:48;;;;;;;2.00;1.43;;;4.10;99.90;;;;;;6343750;22;20474;-90
2022/04/11 15:07:20;;;;;;;2.53;1.47;;;4.10;99.90;;;;;;6343915;22;20181;-91
2022/04/11 15:09:52;;;;;;;4.27;1.40;;;4.10;99.90;;;;;;6356067;22;20193;-91
2022/04/11 15:12:32;;;;;;;2.60;1.40;;;4.10;99.90;;;;;;6363266;22;20163;-89
2022/04/11 15:15:04;;;;;;;1.93;1.30;;;4.20;99.90;;;;;;6362399;22;20173;-90